sensor_id;sensor_type;location;lat;lon;timestamp;pressure;altitude;pressure_sealevel;temperature;humidity
8101;BME280;4093;53.470;9.832;2022-10-17T00:00:22;101846.25;;;15.78;87.69
8101;BME280;4093;53.470;9.832;2022-10-17T00:02:50;101848.28;;;15.62;88.32
8101;BME280;4093;53.470;9.832;2022-10-17T00:05:17;101846.78;;;15.52;88.78
8101;BME280;4093;53.470;9.832;2022-10-17T00:07:45;101865.69;;;15.60;88.43
8101;BME280;4093;53.470;9.832;2022-10-17T00:10:13;101853.44;;;15.65;87.69
8101;BME280;4093;53.470;9.832;2022-10-17T00:12:41;101866.66;;;15.58;88.41
8101;BME280;4093;53.470;9.832;2022-10-17T00:15:13;101872.78;;;15.54;87.89
8101;BME280;4093;53.470;9.832;2022-10-17T00:17:41;101866.66;;;15.58;87.82
8101;BME280;4093;53.470;9.832;2022-10-17T00:20:10;101865.81;;;15.98;86.54
8101;BME280;4093;53.470;9.832;2022-10-17T00:22:38;101861.06;;;15.76;86.68
8101;BME280;4093;53.470;9.832;2022-10-17T00:25:07;101860.03;;;15.85;86.69
8101;BME280;4093;53.470;9.832;2022-10-17T00:27:35;101858.00;;;15.54;87.22
8101;BME280;4093;53.470;9.832;2022-10-17T00:30:03;101873.19;;;15.79;86.66
8101;BME280;4093;53.470;9.832;2022-10-17T00:32:33;101875.38;;;15.99;86.62
8101;BME280;4093;53.470;9.832;2022-10-17T00:35:01;101871.38;;;15.82;87.32
8101;BME280;4093;53.470;9.832;2022-10-17T00:37:29;101861.69;;;15.45;89.86
8101;BME280;4093;53.470;9.832;2022-10-17T00:39:57;101875.47;;;15.50;89.98
8101;BME280;4093;53.470;9.832;2022-10-17T00:42:25;101857.25;;;15.02;92.68
8101;BME280;4093;53.470;9.832;2022-10-17T00:45:09;101843.78;;;14.79;93.65
8101;BME280;4093;53.470;9.832;2022-10-17T00:47:41;101863.94;;;15.17;92.43
8101;BME280;4093;53.470;9.832;2022-10-17T00:50:12;101873.91;;;15.87;89.83
8101;BME280;4093;53.470;9.832;2022-10-17T00:52:42;101881.00;;;16.19;86.64
8101;BME280;4093;53.470;9.832;2022-10-17T00:55:14;101841.16;;;15.73;87.65
8101;BME280;4093;53.470;9.832;2022-10-17T00:57:43;101887.63;;;15.95;88.53
8101;BME280;4093;53.470;9.832;2022-10-17T01:00:13;101878.13;;;16.31;86.52
8101;BME280;4093;53.470;9.832;2022-10-17T01:02:42;101881.72;;;16.27;86.72
8101;BME280;4093;53.470;9.832;2022-10-17T01:05:11;101879.69;;;16.40;86.31
8101;BME280;4093;53.470;9.832;2022-10-17T01:07:40;101878.69;;;16.46;84.65
8101;BME280;4093;53.470;9.832;2022-10-17T01:10:10;101882.22;;;16.41;84.30
8101;BME280;4093;53.470;9.832;2022-10-17T01:12:47;101855.53;;;16.30;83.63
8101;BME280;4093;53.470;9.832;2022-10-17T01:15:28;101878.56;;;16.50;83.59
8101;BME280;4093;53.470;9.832;2022-10-17T01:18:09;101882.22;;;16.41;83.67
8101;BME280;4093;53.470;9.832;2022-10-17T01:21:06;101885.25;;;16.25;83.94
8101;BME280;4093;53.470;9.832;2022-10-17T01:26:48;101886.72;;;15.08;90.39
8101;BME280;4093;53.470;9.832;2022-10-17T01:29:33;101882.25;;;15.13;90.85
8101;BME280;4093;53.470;9.832;2022-10-17T01:32:11;101885.53;;;15.70;88.77
8101;BME280;4093;53.470;9.832;2022-10-17T01:34:47;101881.28;;;16.07;86.71
8101;BME280;4093;53.470;9.832;2022-10-17T01:37:26;101880.53;;;16.02;86.55
8101;BME280;4093;53.470;9.832;2022-10-17T01:39:59;101865.59;;;15.68;88.53
8101;BME280;4093;53.470;9.832;2022-10-17T01:42:34;101868.75;;;15.82;88.48
8101;BME280;4093;53.470;9.832;2022-10-17T01:45:07;101861.91;;;15.78;88.80
8101;BME280;4093;53.470;9.832;2022-10-17T01:47:39;101859.28;;;14.87;92.68
8101;BME280;4093;53.470;9.832;2022-10-17T01:50:12;101859.91;;;14.99;92.44
8101;BME280;4093;53.470;9.832;2022-10-17T01:52:44;101857.88;;;14.66;93.32
8101;BME280;4093;53.470;9.832;2022-10-17T01:55:15;101858.47;;;15.31;91.06
8101;BME280;4093;53.470;9.832;2022-10-17T01:57:48;101786.34;;;14.87;90.62
8101;BME280;4093;53.470;9.832;2022-10-17T02:00:20;101857.16;;;15.09;91.80
8101;BME280;4093;53.470;9.832;2022-10-17T02:02:53;101849.97;;;15.21;91.45
8101;BME280;4093;53.470;9.832;2022-10-17T02:05:25;101839.69;;;15.14;90.90
8101;BME280;4093;53.470;9.832;2022-10-17T02:07:54;101836.78;;;14.83;92.52
8101;BME280;4093;53.470;9.832;2022-10-17T02:10:29;101839.97;;;14.98;92.85
8101;BME280;4093;53.470;9.832;2022-10-17T02:13:02;101837.25;;;15.04;92.69
8101;BME280;4093;53.470;9.832;2022-10-17T02:18:42;101823.56;;;15.82;88.85
8101;BME280;4093;53.470;9.832;2022-10-17T02:21:18;101817.94;;;16.00;87.86
8101;BME280;4093;53.470;9.832;2022-10-17T02:23:54;101819.19;;;15.82;89.09
8101;BME280;4093;53.470;9.832;2022-10-17T02:26:30;101816.66;;;16.18;87.44
8101;BME280;4093;53.470;9.832;2022-10-17T02:29:06;101799.66;;;16.37;86.13
8101;BME280;4093;53.470;9.832;2022-10-17T02:31:37;101796.00;;;16.09;87.13
8101;BME280;4093;53.470;9.832;2022-10-17T02:34:12;101792.03;;;16.30;85.58
8101;BME280;4093;53.470;9.832;2022-10-17T02:36:44;101744.22;;;15.11;90.71
8101;BME280;4093;53.470;9.832;2022-10-17T02:39:14;101803.06;;;15.65;89.84
8101;BME280;4093;53.470;9.832;2022-10-17T02:41:43;101800.53;;;16.01;88.49
8101;BME280;4093;53.470;9.832;2022-10-17T02:44:13;101795.72;;;15.82;88.82
8101;BME280;4093;53.470;9.832;2022-10-17T02:46:41;101789.88;;;15.72;89.54
8101;BME280;4093;53.470;9.832;2022-10-17T02:49:16;101801.56;;;15.93;88.40
8101;BME280;4093;53.470;9.832;2022-10-17T02:51:51;101789.38;;;15.95;88.13
8101;BME280;4093;53.470;9.832;2022-10-17T02:54:30;101779.31;;;16.16;87.77
8101;BME280;4093;53.470;9.832;2022-10-17T02:57:04;101760.16;;;16.17;86.35
8101;BME280;4093;53.470;9.832;2022-10-17T02:59:35;101774.25;;;16.46;85.68
8101;BME280;4093;53.470;9.832;2022-10-17T03:02:04;101773.44;;;16.08;86.44
8101;BME280;4093;53.470;9.832;2022-10-17T03:04:33;101718.03;;;15.96;86.06
8101;BME280;4093;53.470;9.832;2022-10-17T03:07:02;101777.97;;;16.00;87.49
8101;BME280;4093;53.470;9.832;2022-10-17T03:09:29;101774.84;;;15.84;88.09
8101;BME280;4093;53.470;9.832;2022-10-17T03:11:57;101775.50;;;15.93;88.39
8101;BME280;4093;53.470;9.832;2022-10-17T03:14:25;101781.34;;;16.05;87.73
8101;BME280;4093;53.470;9.832;2022-10-17T03:16:52;101767.28;;;15.71;88.79
8101;BME280;4093;53.470;9.832;2022-10-17T03:19:20;101758.34;;;15.41;89.92
8101;BME280;4093;53.470;9.832;2022-10-17T03:21:49;101756.00;;;15.29;90.85
8101;BME280;4093;53.470;9.832;2022-10-17T03:24:17;101755.72;;;15.43;90.69
8101;BME280;4093;53.470;9.832;2022-10-17T03:26:44;101758.47;;;15.35;91.01
8101;BME280;4093;53.470;9.832;2022-10-17T03:29:17;101756.44;;;15.49;90.36
8101;BME280;4093;53.470;9.832;2022-10-17T03:31:45;101761.00;;;15.40;90.85
8101;BME280;4093;53.470;9.832;2022-10-17T03:34:13;101752.91;;;15.10;91.83
8101;BME280;4093;53.470;9.832;2022-10-17T03:36:42;101767.91;;;15.42;91.04
8101;BME280;4093;53.470;9.832;2022-10-17T03:39:11;101758.00;;;15.16;91.85
8101;BME280;4093;53.470;9.832;2022-10-17T03:41:39;101766.53;;;15.24;91.80
8101;BME280;4093;53.470;9.832;2022-10-17T03:44:07;101759.44;;;15.31;91.13
8101;BME280;4093;53.470;9.832;2022-10-17T03:46:34;101763.13;;;15.21;92.11
8101;BME280;4093;53.470;9.832;2022-10-17T03:49:02;101764.59;;;15.34;91.36
8101;BME280;4093;53.470;9.832;2022-10-17T03:51:31;101754.94;;;15.39;90.80
8101;BME280;4093;53.470;9.832;2022-10-17T03:53:59;101757.66;;;15.33;90.52
8101;BME280;4093;53.470;9.832;2022-10-17T03:56:28;101764.50;;;15.39;91.68
8101;BME280;4093;53.470;9.832;2022-10-17T03:58:56;101756.00;;;15.29;91.72
8101;BME280;4093;53.470;9.832;2022-10-17T04:01:24;101743.44;;;15.06;92.30
8101;BME280;4093;53.470;9.832;2022-10-17T04:03:53;101756.75;;;15.34;92.04
8101;BME280;4093;53.470;9.832;2022-10-17T04:06:22;101760.34;;;15.30;91.53
8101;BME280;4093;53.470;9.832;2022-10-17T04:08:50;101748.25;;;14.81;92.97
8101;BME280;4093;53.470;9.832;2022-10-17T04:11:19;101754.78;;;15.03;93.36
8101;BME280;4093;53.470;9.832;2022-10-17T04:13:51;101756.94;;;15.26;91.76
8101;BME280;4093;53.470;9.832;2022-10-17T04:16:20;101752.16;;;15.05;93.29
8101;BME280;4093;53.470;9.832;2022-10-17T04:18:51;101760.16;;;15.38;91.18
8101;BME280;4093;53.470;9.832;2022-10-17T04:21:20;101746.97;;;15.03;92.69
8101;BME280;4093;53.470;9.832;2022-10-17T04:23:52;101681.22;;;14.46;93.70
8101;BME280;4093;53.470;9.832;2022-10-17T04:26:20;101748.22;;;14.84;93.27
8101;BME280;4093;53.470;9.832;2022-10-17T04:28:49;101750.97;;;14.76;93.95
8101;BME280;4093;53.470;9.832;2022-10-17T04:31:17;101738.94;;;14.69;94.35
8101;BME280;4093;53.470;9.832;2022-10-17T04:33:46;101741.34;;;14.80;93.45
8101;BME280;4093;53.470;9.832;2022-10-17T04:36:15;101738.97;;;14.66;94.63
8101;BME280;4093;53.470;9.832;2022-10-17T04:38:43;101720.41;;;14.85;92.69
8101;BME280;4093;53.470;9.832;2022-10-17T04:41:13;101741.88;;;14.97;93.05
8101;BME280;4093;53.470;9.832;2022-10-17T04:43:41;101747.47;;;14.76;94.36
8101;BME280;4093;53.470;9.832;2022-10-17T04:46:17;101742.00;;;14.91;93.18
8101;BME280;4093;53.470;9.832;2022-10-17T04:48:44;101737.78;;;14.86;93.86
8101;BME280;4093;53.470;9.832;2022-10-17T04:51:13;101740.38;;;14.36;96.39
8101;BME280;4093;53.470;9.832;2022-10-17T04:53:42;101736.66;;;14.49;95.97
8101;BME280;4093;53.470;9.832;2022-10-17T04:56:13;101736.88;;;14.39;96.19
8101;BME280;4093;53.470;9.832;2022-10-17T04:58:42;101748.75;;;14.53;96.44
8101;BME280;4093;53.470;9.832;2022-10-17T05:01:12;101740.09;;;14.54;95.68
8101;BME280;4093;53.470;9.832;2022-10-17T05:03:42;101739.47;;;14.87;94.33
8101;BME280;4093;53.470;9.832;2022-10-17T05:06:11;101735.81;;;14.47;96.03
8101;BME280;4093;53.470;9.832;2022-10-17T05:08:40;101740.16;;;14.51;96.12
8101;BME280;4093;53.470;9.832;2022-10-17T05:11:15;101733.22;;;14.47;96.40
8101;BME280;4093;53.470;9.832;2022-10-17T05:13:43;101689.06;;;14.43;94.31
8101;BME280;4093;53.470;9.832;2022-10-17T05:16:10;101735.38;;;14.75;94.05
8101;BME280;4093;53.470;9.832;2022-10-17T05:18:38;101729.59;;;14.59;95.07
8101;BME280;4093;53.470;9.832;2022-10-17T05:21:08;101726.06;;;14.62;94.65
8101;BME280;4093;53.470;9.832;2022-10-17T05:23:35;101724.06;;;14.26;97.06
8101;BME280;4093;53.470;9.832;2022-10-17T05:26:03;101739.38;;;14.91;94.39
8101;BME280;4093;53.470;9.832;2022-10-17T05:28:31;101733.31;;;14.41;96.06
8101;BME280;4093;53.470;9.832;2022-10-17T05:31:02;101725.66;;;14.33;97.02
8101;BME280;4093;53.470;9.832;2022-10-17T05:33:30;101727.50;;;14.27;97.34
8101;BME280;4093;53.470;9.832;2022-10-17T05:35:58;101729.91;;;14.38;97.08
8101;BME280;4093;53.470;9.832;2022-10-17T05:38:27;101709.09;;;14.38;95.58
8101;BME280;4093;53.470;9.832;2022-10-17T05:40:56;101731.94;;;14.22;97.65
8101;BME280;4093;53.470;9.832;2022-10-17T05:43:24;101720.97;;;14.03;98.49
8101;BME280;4093;53.470;9.832;2022-10-17T05:45:53;101730.81;;;14.35;96.85
8101;BME280;4093;53.470;9.832;2022-10-17T05:48:21;101734.28;;;14.37;97.21
8101;BME280;4093;53.470;9.832;2022-10-17T05:50:56;101739.06;;;14.10;98.70
8101;BME280;4093;53.470;9.832;2022-10-17T05:53:24;101747.53;;;14.22;98.74
8101;BME280;4093;53.470;9.832;2022-10-17T05:55:58;101736.41;;;14.14;99.10
8101;BME280;4093;53.470;9.832;2022-10-17T05:58:27;101733.03;;;14.07;99.32
8101;BME280;4093;53.470;9.832;2022-10-17T06:01:15;101725.78;;;14.27;100.00
8101;BME280;4093;53.470;9.832;2022-10-17T06:03:43;101722.41;;;14.72;95.29
8101;BME280;4093;53.470;9.832;2022-10-17T06:06:13;101728.00;;;14.47;96.73
8101;BME280;4093;53.470;9.832;2022-10-17T06:08:41;101728.41;;;14.26;98.94
8101;BME280;4093;53.470;9.832;2022-10-17T06:11:11;101716.53;;;14.09;100.00
8101;BME280;4093;53.470;9.832;2022-10-17T06:13:40;101722.44;;;14.19;99.90
8101;BME280;4093;53.470;9.832;2022-10-17T06:16:08;101722.84;;;14.46;98.99
8101;BME280;4093;53.470;9.832;2022-10-17T06:18:36;101719.78;;;14.22;100.00
8101;BME280;4093;53.470;9.832;2022-10-17T06:21:05;101714.50;;;14.27;99.89
8101;BME280;4093;53.470;9.832;2022-10-17T06:23:33;101714.72;;;14.15;100.00
8101;BME280;4093;53.470;9.832;2022-10-17T06:26:03;101724.72;;;14.87;97.86
8101;BME280;4093;53.470;9.832;2022-10-17T06:28:33;101722.47;;;14.69;97.82
8101;BME280;4093;53.470;9.832;2022-10-17T06:31:03;101716.00;;;14.90;97.61
8101;BME280;4093;53.470;9.832;2022-10-17T06:33:31;101723.13;;;14.80;97.56
8101;BME280;4093;53.470;9.832;2022-10-17T06:35:59;101722.72;;;15.00;97.96
8101;BME280;4093;53.470;9.832;2022-10-17T06:38:27;101714.84;;;15.04;98.40
8101;BME280;4093;53.470;9.832;2022-10-17T06:41:01;101717.28;;;15.91;95.08
8101;BME280;4093;53.470;9.832;2022-10-17T06:43:30;101705.34;;;15.81;94.35
8101;BME280;4093;53.470;9.832;2022-10-17T06:45:59;101707.59;;;15.96;94.47
8101;BME280;4093;53.470;9.832;2022-10-17T06:48:27;101698.72;;;16.04;94.08
8101;BME280;4093;53.470;9.832;2022-10-17T06:50:57;101698.63;;;16.75;93.23
8101;BME280;4093;53.470;9.832;2022-10-17T06:53:26;101706.34;;;16.80;92.84
8101;BME280;4093;53.470;9.832;2022-10-17T06:55:54;101702.63;;;17.18;90.28
8101;BME280;4093;53.470;9.832;2022-10-17T06:58:26;101703.50;;;17.17;91.57
8101;BME280;4093;53.470;9.832;2022-10-17T07:00:59;101704.88;;;17.58;91.95
8101;BME280;4093;53.470;9.832;2022-10-17T07:03:27;101705.78;;;17.86;89.83
8101;BME280;4093;53.470;9.832;2022-10-17T07:05:56;101697.09;;;18.12;89.23
8101;BME280;4093;53.470;9.832;2022-10-17T07:08:24;101683.63;;;18.22;89.03
8101;BME280;4093;53.470;9.832;2022-10-17T07:10:53;101696.94;;;18.41;90.70
8101;BME280;4093;53.470;9.832;2022-10-17T07:13:21;101694.13;;;18.72;87.68
8101;BME280;4093;53.470;9.832;2022-10-17T07:15:49;101691.41;;;18.76;88.01
8101;BME280;4093;53.470;9.832;2022-10-17T07:18:18;101718.31;;;19.28;87.20
8101;BME280;4093;53.470;9.832;2022-10-17T07:20:51;101725.56;;;19.67;85.46
8101;BME280;4093;53.470;9.832;2022-10-17T07:23:20;101687.19;;;19.18;84.74
8101;BME280;4093;53.470;9.832;2022-10-17T07:25:47;101729.00;;;18.98;86.53
8101;BME280;4093;53.470;9.832;2022-10-17T07:28:15;101716.34;;;18.86;86.24
8101;BME280;4093;53.470;9.832;2022-10-17T07:30:43;101703.47;;;18.80;89.02
8101;BME280;4093;53.470;9.832;2022-10-17T07:33:16;101728.88;;;19.72;85.27
8101;BME280;4093;53.470;9.832;2022-10-17T07:35:45;101729.22;;;19.39;84.49
8101;BME280;4093;53.470;9.832;2022-10-17T07:38:12;101732.78;;;20.26;82.91
8101;BME280;4093;53.470;9.832;2022-10-17T07:40:40;101730.09;;;21.26;79.49
8101;BME280;4093;53.470;9.832;2022-10-17T07:43:08;101734.13;;;21.54;77.63
8101;BME280;4093;53.470;9.832;2022-10-17T07:45:36;101748.47;;;23.54;71.42
8101;BME280;4093;53.470;9.832;2022-10-17T07:48:04;101742.94;;;26.05;65.23
8101;BME280;4093;53.470;9.832;2022-10-17T07:50:32;101781.09;;;28.41;57.73
8101;BME280;4093;53.470;9.832;2022-10-17T07:53:01;101733.81;;;27.61;56.34
8101;BME280;4093;53.470;9.832;2022-10-17T07:55:29;101722.94;;;25.87;60.66
8101;BME280;4093;53.470;9.832;2022-10-17T07:57:56;101722.19;;;26.37;60.43
8101;BME280;4093;53.470;9.832;2022-10-17T08:00:25;101726.41;;;25.19;63.72
8101;BME280;4093;53.470;9.832;2022-10-17T08:02:53;101730.94;;;24.88;66.66
8101;BME280;4093;53.470;9.832;2022-10-17T08:05:21;101718.59;;;24.74;66.68
8101;BME280;4093;53.470;9.832;2022-10-17T08:07:49;101712.06;;;24.65;66.27
8101;BME280;4093;53.470;9.832;2022-10-17T08:10:18;101724.44;;;26.56;62.35
8101;BME280;4093;53.470;9.832;2022-10-17T08:12:46;101711.19;;;26.03;61.84
8101;BME280;4093;53.470;9.832;2022-10-17T08:15:14;101708.78;;;26.26;61.14
8101;BME280;4093;53.470;9.832;2022-10-17T08:17:42;101710.66;;;25.44;63.41
8101;BME280;4093;53.470;9.832;2022-10-17T08:20:10;101704.88;;;24.82;65.17
8101;BME280;4093;53.470;9.832;2022-10-17T08:22:38;101705.81;;;24.95;66.92
8101;BME280;4093;53.470;9.832;2022-10-17T08:25:07;101709.88;;;24.13;68.11
8101;BME280;4093;53.470;9.832;2022-10-17T08:27:36;101695.50;;;23.57;70.54
8101;BME280;4093;53.470;9.832;2022-10-17T08:30:04;101687.22;;;23.16;72.32
8101;BME280;4093;53.470;9.832;2022-10-17T08:32:32;101711.72;;;23.65;70.95
8101;BME280;4093;53.470;9.832;2022-10-17T08:35:00;101697.34;;;24.31;69.36
8101;BME280;4093;53.470;9.832;2022-10-17T08:37:28;101694.13;;;23.34;72.29
8101;BME280;4093;53.470;9.832;2022-10-17T08:39:57;101699.06;;;23.24;73.52
8101;BME280;4093;53.470;9.832;2022-10-17T08:42:37;101697.03;;;22.80;74.80
8101;BME280;4093;53.470;9.832;2022-10-17T08:45:18;101686.25;;;22.52;76.00
8101;BME280;4093;53.470;9.832;2022-10-17T08:47:51;101691.06;;;22.77;75.77
8101;BME280;4093;53.470;9.832;2022-10-17T08:50:26;101697.78;;;23.31;73.51
8101;BME280;4093;53.470;9.832;2022-10-17T08:53:01;101705.28;;;23.23;74.30
8101;BME280;4093;53.470;9.832;2022-10-17T08:55:32;101712.53;;;22.86;75.60
8101;BME280;4093;53.470;9.832;2022-10-17T08:58:12;101719.88;;;22.47;77.32
8101;BME280;4093;53.470;9.832;2022-10-17T09:00:46;101693.03;;;22.73;75.77
8101;BME280;4093;53.470;9.832;2022-10-17T09:03:26;101679.66;;;22.43;76.80
8101;BME280;4093;53.470;9.832;2022-10-17T09:06:08;101704.38;;;22.91;75.73
8101;BME280;4093;53.470;9.832;2022-10-17T09:08:42;101698.84;;;22.62;75.92
8101;BME280;4093;53.470;9.832;2022-10-17T09:11:19;101700.41;;;22.67;76.80
8101;BME280;4093;53.470;9.832;2022-10-17T09:14:01;101696.47;;;22.58;77.25
8101;BME280;4093;53.470;9.832;2022-10-17T09:16:55;101698.31;;;22.56;76.90
8101;BME280;4093;53.470;9.832;2022-10-17T09:19:29;101701.97;;;22.86;76.09
8101;BME280;4093;53.470;9.832;2022-10-17T09:22:00;101720.50;;;23.02;75.20
8101;BME280;4093;53.470;9.832;2022-10-17T09:24:37;101719.72;;;22.67;77.09
8101;BME280;4093;53.470;9.832;2022-10-17T09:27:17;101725.91;;;23.17;75.60
8101;BME280;4093;53.470;9.832;2022-10-17T09:29:49;101716.22;;;22.67;76.60
8101;BME280;4093;53.470;9.832;2022-10-17T09:32:24;101724.16;;;22.67;77.73
8101;BME280;4093;53.470;9.832;2022-10-17T09:34:52;101725.13;;;22.81;76.10
8101;BME280;4093;53.470;9.832;2022-10-17T09:37:25;101726.56;;;23.04;76.07
8101;BME280;4093;53.470;9.832;2022-10-17T09:39:56;101724.72;;;22.89;76.65
8101;BME280;4093;53.470;9.832;2022-10-17T09:42:25;101728.94;;;22.76;77.09
8101;BME280;4093;53.470;9.832;2022-10-17T09:45:02;101697.56;;;22.36;77.26
8101;BME280;4093;53.470;9.832;2022-10-17T09:47:35;101710.84;;;22.85;76.90
8101;BME280;4093;53.470;9.832;2022-10-17T09:50:15;101709.16;;;22.67;77.36
8101;BME280;4093;53.470;9.832;2022-10-17T09:52:44;101720.75;;;22.98;76.18
8101;BME280;4093;53.470;9.832;2022-10-17T09:55:17;101660.56;;;22.22;77.32
8101;BME280;4093;53.470;9.832;2022-10-17T09:57:53;101723.03;;;22.71;77.79
8101;BME280;4093;53.470;9.832;2022-10-17T10:00:23;101719.59;;;22.35;78.33
8101;BME280;4093;53.470;9.832;2022-10-17T10:03:07;101730.06;;;22.54;78.40
8101;BME280;4093;53.470;9.832;2022-10-17T10:05:35;101721.38;;;22.85;77.78
8101;BME280;4093;53.470;9.832;2022-10-17T10:08:05;101719.59;;;22.18;79.29
8101;BME280;4093;53.470;9.832;2022-10-17T10:10:39;101731.47;;;22.27;79.38
8101;BME280;4093;53.470;9.832;2022-10-17T10:13:17;101744.56;;;22.46;79.21
8101;BME280;4093;53.470;9.832;2022-10-17T10:15:48;101695.72;;;22.38;78.89
8101;BME280;4093;53.470;9.832;2022-10-17T10:18:32;101738.81;;;22.55;78.25
8101;BME280;4093;53.470;9.832;2022-10-17T10:21:10;101744.66;;;22.95;77.42
8101;BME280;4093;53.470;9.832;2022-10-17T10:23:39;101740.56;;;23.22;77.03
8101;BME280;4093;53.470;9.832;2022-10-17T10:26:19;101746.50;;;23.26;77.04
8101;BME280;4093;53.470;9.832;2022-10-17T10:28:54;101752.97;;;23.52;75.57
8101;BME280;4093;53.470;9.832;2022-10-17T10:31:29;101751.28;;;23.67;75.24
8101;BME280;4093;53.470;9.832;2022-10-17T10:34:02;101739.16;;;23.63;74.74
8101;BME280;4093;53.470;9.832;2022-10-17T10:36:47;101736.88;;;22.92;76.30
8101;BME280;4093;53.470;9.832;2022-10-17T10:39:27;101731.53;;;23.26;75.33
8101;BME280;4093;53.470;9.832;2022-10-17T10:41:56;101743.38;;;23.35;75.46
8101;BME280;4093;53.470;9.832;2022-10-17T10:44:25;101692.44;;;22.84;76.03
8101;BME280;4093;53.470;9.832;2022-10-17T10:47:23;101738.44;;;23.45;74.84
8101;BME280;4093;53.470;9.832;2022-10-17T10:50:14;101748.41;;;23.71;75.41
8101;BME280;4093;53.470;9.832;2022-10-17T10:52:46;101742.75;;;23.30;75.77
8101;BME280;4093;53.470;9.832;2022-10-17T10:55:23;101757.25;;;23.39;75.86
8101;BME280;4093;53.470;9.832;2022-10-17T11:00:37;101750.91;;;22.92;77.34
8101;BME280;4093;53.470;9.832;2022-10-17T11:03:12;101755.06;;;22.98;77.21
8101;BME280;4093;53.470;9.832;2022-10-17T11:05:45;101755.84;;;22.82;77.90
8101;BME280;4093;53.470;9.832;2022-10-17T11:08:20;101760.75;;;23.06;77.00
8101;BME280;4093;53.470;9.832;2022-10-17T11:11:11;101763.19;;;23.26;76.72
8101;BME280;4093;53.470;9.832;2022-10-17T11:13:46;101729.44;;;23.00;76.15
8101;BME280;4093;53.470;9.832;2022-10-17T11:16:27;101758.31;;;22.68;78.24
8101;BME280;4093;53.470;9.832;2022-10-17T11:19:02;101756.44;;;22.87;77.11
8101;BME280;4093;53.470;9.832;2022-10-17T11:21:39;101773.09;;;22.72;78.71
8101;BME280;4093;53.470;9.832;2022-10-17T11:24:15;101782.25;;;23.31;77.60
8101;BME280;4093;53.470;9.832;2022-10-17T11:26:49;101783.66;;;23.86;75.21
8101;BME280;4093;53.470;9.832;2022-10-17T11:29:22;101776.75;;;23.84;74.90
8101;BME280;4093;53.470;9.832;2022-10-17T11:31:56;101774.09;;;23.68;75.59
8101;BME280;4093;53.470;9.832;2022-10-17T11:34:29;101771.25;;;24.18;74.75
8101;BME280;4093;53.470;9.832;2022-10-17T11:37:03;101704.44;;;23.70;74.16
8101;BME280;4093;53.470;9.832;2022-10-17T11:39:37;101764.06;;;23.43;76.23
8101;BME280;4093;53.470;9.832;2022-10-17T11:42:10;101758.44;;;23.65;75.73
8101;BME280;4093;53.470;9.832;2022-10-17T11:44:40;101747.81;;;23.82;74.52
8101;BME280;4093;53.470;9.832;2022-10-17T11:47:16;101757.25;;;23.39;76.25
8101;BME280;4093;53.470;9.832;2022-10-17T11:49:49;101758.31;;;22.85;77.89
8101;BME280;4093;53.470;9.832;2022-10-17T11:52:29;101783.63;;;22.72;80.56
8101;BME280;4093;53.470;9.832;2022-10-17T11:55:22;101794.69;;;22.96;82.01
8101;BME280;4093;53.470;9.832;2022-10-17T11:58:23;101783.22;;;22.97;83.04
8101;BME280;4093;53.470;9.832;2022-10-17T12:01:08;101792.31;;;22.39;87.35
8101;BME280;4093;53.470;9.832;2022-10-17T12:03:50;101813.63;;;22.52;87.07
8101;BME280;4093;53.470;9.832;2022-10-17T12:06:32;101814.25;;;22.40;89.27
8101;BME280;4093;53.470;9.832;2022-10-17T12:09:09;101825.25;;;22.66;87.40
8101;BME280;4093;53.470;9.832;2022-10-17T12:11:45;101822.56;;;22.67;86.99
8101;BME280;4093;53.470;9.832;2022-10-17T12:14:37;101768.97;;;21.95;88.90
8101;BME280;4093;53.470;9.832;2022-10-17T12:17:30;101839.59;;;22.25;88.96
8101;BME280;4093;53.470;9.832;2022-10-17T12:20:34;101845.56;;;22.46;88.85
8101;BME280;4093;53.470;9.832;2022-10-17T12:23:19;101842.19;;;22.44;88.80
8101;BME280;4093;53.470;9.832;2022-10-17T12:25:52;101843.44;;;22.54;88.56
8101;BME280;4093;53.470;9.832;2022-10-17T12:28:27;101830.28;;;22.87;86.47
8101;BME280;4093;53.470;9.832;2022-10-17T12:31:00;101827.75;;;22.86;87.13
8101;BME280;4093;53.470;9.832;2022-10-17T12:33:34;101827.31;;;22.95;86.52
8101;BME280;4093;53.470;9.832;2022-10-17T12:39:48;101839.16;;;22.69;88.18
8101;BME280;4093;53.470;9.832;2022-10-17T12:42:46;101833.56;;;22.58;88.58
8101;BME280;4093;53.470;9.832;2022-10-17T12:45:45;101852.97;;;22.74;88.08
8101;BME280;4093;53.470;9.832;2022-10-17T12:48:59;101861.41;;;22.46;89.04
8101;BME280;4093;53.470;9.832;2022-10-17T12:51:27;101860.25;;;22.34;89.02
8101;BME280;4093;53.470;9.832;2022-10-17T12:54:09;101865.66;;;22.31;89.16
8101;BME280;4093;53.470;9.832;2022-10-17T12:56:40;101872.63;;;22.32;88.37
8101;BME280;4093;53.470;9.832;2022-10-17T12:59:13;101874.41;;;22.32;88.52
8101;BME280;4093;53.470;9.832;2022-10-17T13:01:44;101834.69;;;22.17;87.19
8101;BME280;4093;53.470;9.832;2022-10-17T13:04:13;101916.94;;;22.24;88.59
8101;BME280;4093;53.470;9.832;2022-10-17T13:06:44;101940.19;;;21.95;90.24
8101;BME280;4093;53.470;9.832;2022-10-17T13:09:22;101936.63;;;21.38;93.63
8101;BME280;4093;53.470;9.832;2022-10-17T13:11:51;101912.63;;;21.24;94.86
8101;BME280;4093;53.470;9.832;2022-10-17T13:14:22;101887.13;;;21.26;94.78
8101;BME280;4093;53.470;9.832;2022-10-17T13:16:53;101891.75;;;21.41;94.33
8101;BME280;4093;53.470;9.832;2022-10-17T13:19:23;101896.94;;;21.43;94.74
8101;BME280;4093;53.470;9.832;2022-10-17T13:21:52;101882.97;;;21.80;93.12
8101;BME280;4093;53.470;9.832;2022-10-17T13:24:25;101877.56;;;21.83;92.85
8101;BME280;4093;53.470;9.832;2022-10-17T13:26:55;101869.03;;;21.97;91.80
8101;BME280;4093;53.470;9.832;2022-10-17T13:29:26;101879.41;;;22.00;91.77
8101;BME280;4093;53.470;9.832;2022-10-17T13:34:26;101896.22;;;21.98;91.75
8101;BME280;4093;53.470;9.832;2022-10-17T13:36:56;101893.06;;;21.89;91.87
8101;BME280;4093;53.470;9.832;2022-10-17T13:39:26;101891.81;;;21.40;94.33
8101;BME280;4093;53.470;9.832;2022-10-17T13:42:18;101915.09;;;21.29;94.82
8101;BME280;4093;53.470;9.832;2022-10-17T13:44:50;101923.50;;;20.53;99.87
8101;BME280;4093;53.470;9.832;2022-10-17T13:47:21;101949.66;;;20.99;97.98
8101;BME280;4093;53.470;9.832;2022-10-17T13:49:49;101936.06;;;21.10;97.36
8101;BME280;4093;53.470;9.832;2022-10-17T13:52:22;101912.84;;;20.78;98.51